createdAt,value
2018-09-14T00:03:25.330Z,99.60
2018-09-14T00:08:29.985Z,99.60
2018-09-14T00:13:34.520Z,99.60
2018-09-14T00:18:39.641Z,99.60
2018-09-14T00:23:44.419Z,99.60
2018-09-14T00:28:48.838Z,99.60
2018-09-14T00:33:53.377Z,99.60
2018-09-14T00:38:57.893Z,99.60
2018-09-14T00:44:03.765Z,99.60
2018-09-14T00:49:08.388Z,99.60
2018-09-14T00:54:12.845Z,99.60
2018-09-14T00:59:17.400Z,99.60
2018-09-14T01:04:22.647Z,99.60
2018-09-14T01:09:29.586Z,99.60
2018-09-14T01:14:34.050Z,99.60
2018-09-14T01:19:38.544Z,99.60
2018-09-14T01:24:43.207Z,99.60
2018-09-14T01:29:47.695Z,99.60
2018-09-14T01:34:52.154Z,99.60
2018-09-14T01:39:57.536Z,99.60
2018-09-14T01:45:02.166Z,99.60
2018-09-14T01:50:07.529Z,99.60
2018-09-14T01:55:12.165Z,99.60
2018-09-14T02:00:16.729Z,99.60
2018-09-14T02:05:21.829Z,99.60
2018-09-14T02:10:26.488Z,99.60
2018-09-14T02:15:31.116Z,99.60
2018-09-14T02:20:35.632Z,99.60
2018-09-14T02:25:40.076Z,99.60
2018-09-14T02:30:44.691Z,99.60
2018-09-14T02:35:49.272Z,99.60
2018-09-14T02:40:53.825Z,99.60
2018-09-14T02:45:58.554Z,99.60
2018-09-14T02:51:03.013Z,99.60
2018-09-14T02:56:07.639Z,99.60
2018-09-14T03:01:12.133Z,99.60
2018-09-14T03:06:17.020Z,99.60
2018-09-14T03:11:21.622Z,99.60
2018-09-14T03:16:26.251Z,99.60
2018-09-14T03:21:30.688Z,99.60
2018-09-14T03:26:35.324Z,99.60
2018-09-14T03:31:39.949Z,99.60
2018-09-14T03:36:44.360Z,99.60
2018-09-14T03:41:49.314Z,99.60
2018-09-14T03:46:53.892Z,99.60
2018-09-14T03:51:58.448Z,99.60
2018-09-14T03:57:05.540Z,99.60
2018-09-14T04:02:09.884Z,99.60
2018-09-14T04:07:14.445Z,99.60
2018-09-14T04:12:19.432Z,99.60
2018-09-14T04:17:24.011Z,99.60
2018-09-14T04:22:28.458Z,99.60
2018-09-14T04:27:32.991Z,99.60
2018-09-14T04:32:37.492Z,99.60
2018-09-14T04:37:41.920Z,99.60
2018-09-14T04:42:46.339Z,99.60
2018-09-14T04:47:50.925Z,99.60
2018-09-14T04:52:55.574Z,99.60
2018-09-14T04:58:00.903Z,99.60
2018-09-14T05:03:06.643Z,99.60
2018-09-14T05:08:11.190Z,99.60
2018-09-14T05:13:15.896Z,99.60
2018-09-14T05:18:21.912Z,99.60
2018-09-14T05:23:29.249Z,99.60
2018-09-14T05:28:34.186Z,99.60
2018-09-14T05:33:38.701Z,99.60
2018-09-14T05:38:46.325Z,99.60
2018-09-14T05:43:50.881Z,99.60
2018-09-14T05:48:55.811Z,99.60
2018-09-14T05:54:00.282Z,99.60
2018-09-14T05:59:05.189Z,99.60
2018-09-14T06:04:09.682Z,99.60
2018-09-14T06:09:14.327Z,99.60
2018-09-14T06:14:18.778Z,99.60
2018-09-14T06:19:23.348Z,99.60
2018-09-14T06:24:27.869Z,99.60
2018-09-14T06:29:32.490Z,99.60
2018-09-14T06:34:37.063Z,99.60
2018-09-14T06:39:42.795Z,99.60
2018-09-14T06:44:47.194Z,99.60
2018-09-14T06:49:51.691Z,99.60
2018-09-14T06:54:56.367Z,99.60
2018-09-14T07:00:01.750Z,99.60
2018-09-14T07:05:07.119Z,99.60
2018-09-14T07:10:11.681Z,99.60
2018-09-14T07:15:16.682Z,99.60
2018-09-14T07:20:21.272Z,99.60
2018-09-14T07:25:26.881Z,99.60
2018-09-14T07:30:31.508Z,99.60
2018-09-14T07:35:36.537Z,99.60
2018-09-14T07:40:41.115Z,99.60
2018-09-14T07:45:45.589Z,99.60
2018-09-14T07:50:51.235Z,99.60
2018-09-14T07:55:55.822Z,99.60
2018-09-14T08:01:00.249Z,99.60
2018-09-14T08:06:05.680Z,99.60
2018-09-14T08:11:10.141Z,99.60
2018-09-14T08:16:15.853Z,99.60
2018-09-14T08:21:20.564Z,99.60
2018-09-14T08:26:24.932Z,99.60
2018-09-14T08:31:29.301Z,99.60
2018-09-14T08:36:34.225Z,99.60
2018-09-14T08:41:39.043Z,99.60
2018-09-14T08:46:43.526Z,99.60
2018-09-14T08:51:47.989Z,99.60
2018-09-14T08:56:52.602Z,99.60
2018-09-14T09:01:57.194Z,99.60
2018-09-14T09:07:01.798Z,99.30
2018-09-14T09:12:06.378Z,99.60
2018-09-14T09:17:11.011Z,99.10
2018-09-14T09:22:15.894Z,99.50
2018-09-14T09:27:20.326Z,97.60
2018-09-14T09:32:25.417Z,95.20
2018-09-14T09:42:12.660Z,95.80
2018-09-14T09:47:23.979Z,96.90
2018-09-14T09:52:29.213Z,97.20
2018-09-14T09:57:34.039Z,96.30
2018-09-14T10:02:43.783Z,94.90
2018-09-14T10:07:49.356Z,95.30
2018-09-14T10:12:54.126Z,99.60
2018-09-14T10:17:58.646Z,98.00
2018-09-14T10:23:03.227Z,96.80
2018-09-14T10:28:07.873Z,91.60
2018-09-14T10:33:13.104Z,94.50
2018-09-14T10:38:18.925Z,95.50
2018-09-14T10:43:23.678Z,95.90
2018-09-14T10:48:28.647Z,94.00
2018-09-14T10:53:34.076Z,93.00
2018-09-14T10:58:44.080Z,88.10
2018-09-14T11:03:48.639Z,90.10
2018-09-14T11:08:52.880Z,90.10
2018-09-14T11:13:58.010Z,88.50
2018-09-14T11:19:02.364Z,87.90
2018-09-14T11:24:07.963Z,83.70
2018-09-14T11:29:13.058Z,81.80
2018-09-14T11:34:17.749Z,81.60
2018-09-14T11:39:24.240Z,81.30
2018-09-14T11:44:28.932Z,81.30
2018-09-14T11:49:33.442Z,79.40
2018-09-14T11:54:37.780Z,77.60
2018-09-14T11:59:42.333Z,77.80
2018-09-14T12:04:46.797Z,78.50
2018-09-14T12:09:52.025Z,77.60
2018-09-14T12:14:57.574Z,77.50
2018-09-14T12:20:02.092Z,79.70
2018-09-14T12:25:07.317Z,81.90
2018-09-14T12:30:11.713Z,81.60
2018-09-14T12:35:16.978Z,83.20
2018-09-14T12:40:21.521Z,79.70
2018-09-14T12:45:27.124Z,76.80
2018-09-14T12:50:31.680Z,77.30
2018-09-14T12:55:37.758Z,79.30
2018-09-14T13:00:42.497Z,81.90
2018-09-14T13:05:46.790Z,80.10
2018-09-14T13:10:51.302Z,81.20
2018-09-14T13:15:56.239Z,84.40
2018-09-14T13:21:00.906Z,86.50
2018-09-14T13:26:05.976Z,85.40
2018-09-14T13:31:11.067Z,82.40
2018-09-14T13:36:16.845Z,84.50
2018-09-14T13:41:21.320Z,82.60
2018-09-14T13:46:25.993Z,82.90
2018-09-14T13:51:30.467Z,84.30
2018-09-14T13:56:35.752Z,84.50
2018-09-14T14:06:57.976Z,84.50
2018-09-14T14:12:05.133Z,83.60
2018-09-14T14:17:10.483Z,86.70
2018-09-14T14:22:15.556Z,86.50
2018-09-14T14:27:20.530Z,84.90
2018-09-14T14:32:25.123Z,86.60
2018-09-14T14:37:29.662Z,86.70
2018-09-14T14:42:35.278Z,86.80
2018-09-14T14:47:39.614Z,86.30
2018-09-14T14:52:44.185Z,83.50
2018-09-14T14:57:49.519Z,81.20
2018-09-14T15:02:54.100Z,83.50
2018-09-14T15:07:59.245Z,86.70
2018-09-14T15:13:04.342Z,87.90
2018-09-14T15:18:08.741Z,86.30
2018-09-14T15:23:14.315Z,85.80
2018-09-14T15:28:20.752Z,83.10
2018-09-14T15:33:25.390Z,82.30
2018-09-14T15:38:30.067Z,82.80
2018-09-14T15:43:35.214Z,78.60
2018-09-14T15:48:39.888Z,76.80
2018-09-14T15:53:44.631Z,77.30
2018-09-14T15:58:49.867Z,79.70
2018-09-14T16:03:54.893Z,81.90
2018-09-14T16:08:59.563Z,85.00
2018-09-14T16:14:04.886Z,84.90
2018-09-14T16:19:09.291Z,86.90
2018-09-14T16:24:16.179Z,82.70
2018-09-14T16:29:20.775Z,81.60
2018-09-14T16:34:25.381Z,83.10
2018-09-14T16:39:30.623Z,84.40
2018-09-14T16:44:35.362Z,85.80
2018-09-14T16:49:43.035Z,87.30
2018-09-14T16:55:00.640Z,89.00
2018-09-14T17:00:09.028Z,89.60
2018-09-14T17:05:13.600Z,89.90
2018-09-14T17:10:18.221Z,91.20
2018-09-14T17:15:22.902Z,92.00
2018-09-14T17:20:28.727Z,93.20
2018-09-14T17:25:33.314Z,94.30
2018-09-14T17:30:37.863Z,95.10
2018-09-14T17:35:42.545Z,95.60
2018-09-14T17:40:47.377Z,97.60
2018-09-14T17:45:51.879Z,99.10
2018-09-14T17:50:56.761Z,99.60
2018-09-14T17:56:01.299Z,99.60
2018-09-14T18:01:06.238Z,99.60
2018-09-14T18:06:10.824Z,99.60
2018-09-14T18:11:15.875Z,99.60
2018-09-14T18:16:20.662Z,99.60
2018-09-14T18:21:25.897Z,99.60
2018-09-14T18:26:31.047Z,99.60
2018-09-14T18:37:06.598Z,99.60
2018-09-14T18:42:57.848Z,99.60
2018-09-14T18:48:07.019Z,99.60
2018-09-14T18:53:11.874Z,99.60
2018-09-14T18:58:17.534Z,99.60
2018-09-14T19:03:22.277Z,99.60
2018-09-14T19:08:27.421Z,99.60
2018-09-14T19:13:32.115Z,99.60
2018-09-14T19:18:36.737Z,99.60
2018-09-14T19:23:41.338Z,99.60
2018-09-14T19:28:46.590Z,99.60
2018-09-14T19:33:51.550Z,99.60
2018-09-14T19:38:56.643Z,99.60
2018-09-14T19:44:01.627Z,99.60
2018-09-14T19:49:10.710Z,99.60
2018-09-14T19:54:16.975Z,99.60
2018-09-14T19:59:22.325Z,99.60
2018-09-14T20:04:27.136Z,99.60
2018-09-14T20:20:45.997Z,99.60
2018-09-14T20:25:54.032Z,99.60
2018-09-14T20:30:58.779Z,99.60
2018-09-14T20:36:03.415Z,99.60
2018-09-14T20:41:08.608Z,99.60
2018-09-14T20:46:13.849Z,99.60
2018-09-14T20:51:19.594Z,99.60
2018-09-14T20:56:25.804Z,99.60
2018-09-14T21:01:34.424Z,99.60
2018-09-14T21:06:39.481Z,99.60
2018-09-14T21:11:49.556Z,99.60
2018-09-14T21:16:54.800Z,99.60
2018-09-14T21:22:00.704Z,99.60
2018-09-14T21:27:05.415Z,99.60
2018-09-14T21:32:10.788Z,99.60
2018-09-14T21:37:15.398Z,99.60
2018-09-14T21:42:19.986Z,99.60
2018-09-14T21:47:24.559Z,99.60
2018-09-14T21:52:29.601Z,99.60
2018-09-14T21:57:34.220Z,99.60
2018-09-14T22:02:38.821Z,99.60
2018-09-14T22:07:44.127Z,99.60
2018-09-14T22:12:49.053Z,99.60
2018-09-14T22:17:54.138Z,99.60
2018-09-14T22:22:58.827Z,99.60
2018-09-14T22:28:03.475Z,99.60
2018-09-14T22:33:08.193Z,99.60
2018-09-14T22:38:12.874Z,99.60
2018-09-14T22:43:17.859Z,99.60
2018-09-14T22:48:22.587Z,99.60
2018-09-14T22:53:27.799Z,99.60
2018-09-14T22:58:32.163Z,99.60
2018-09-14T23:03:37.327Z,99.60
2018-09-14T23:08:41.962Z,99.60
2018-09-14T23:13:46.898Z,99.60
2018-09-14T23:18:51.560Z,99.60
2018-09-14T23:23:56.282Z,99.60
2018-09-14T23:29:01.588Z,99.60
2018-09-14T23:34:06.255Z,99.60
2018-09-14T23:39:11.866Z,99.60
2018-09-14T23:44:16.288Z,99.60
2018-09-14T23:49:20.711Z,99.60
2018-09-14T23:54:25.306Z,99.60
2018-09-14T23:59:30.453Z,99.60
